Ophir, CO (81426)

8:00 AM MDT on July 31, 2014 (GMT -0600)
Telluride Regional (KTEX) Elev 9078 ft | 37.95 °N, 107.91 °W | Change Station

Current weather conditions updated 4 minutes ago

Clear
Clear
55 °F
Feels Like 55 °F
N
0
Wind Variable Wind from North

Today is forecast to be nearly the same temperature as yesterday. Showers and thunderstorms.

Today
High -- | Low -- °F
--% Chance of Precip.
Yesterday
High -- | Low -- °F
Precip. -- in
6:14 AM 8:21 PM
Waxing Crescent, 18% visible
Pressure 30.45 in
Visibility 10.0 miles
Clouds Clear
Dew Point 46 °F
Humidity 72%
Rainfall 0.00 in
Snow Depth 0 in , 0 in , 0 in
UV 1 out of 12
Pollen 6.40 out of 12
Air Quality Not available.
Flu Activity Not available.
METAR KTEX 311356Z AUTO 00000KT 10SM CLR 13/08 A3045 RMK AO2 LTG DSNT S

More Conditions Fewer Conditions

Pressure 30.45 in
Visibility 10.0 miles
Clouds Clear
Dew Point 46 °F
Humidity 72%
Rainfall 0.00 in
Snow Depth 0 in , 0 in , 0 in
UV 1 out of 12
Pollen 6.40 out of 12
Air Quality Not available.
Flu Activity Not available.
METAR KTEX 311356Z AUTO 00000KT 10SM CLR 13/08 A3045 RMK AO2 LTG DSNT S

More Conditions Fewer Conditions

10-Day Weather Forecast

Almanac

Astronomy

Jul. 31, 2014 Rise Set
Actual Time 6:14 AM MDT 8:21 PM MDT
Civil Twilight 5:44 AM MDT 8:50 PM MDT
Nautical Twilight 5:09 AM MDT 9:25 PM MDT
Astronomical Twilight 4:30 AM MDT 10:04 PM MDT
Moon 10:38 AM MDT 10:41 PM MDT
Length of Visible Light 15h 05m
Length of Day
14h 07m
Tomorrow will be 1m 50s shorter.
Waxing Crescent, 18% of the Moon is Illuminated
Today
Waxing Crescent
Aug 3
First Quarter
Aug 10
Full
Aug 17
Last Quarter
Aug 25
New

Today's Extremes

State Highs State Lows

Community

WunderPhotos

Upload Photos

1,739,329 photos uploaded!

Nearby

Snow Depth

Station Depth Elevation
Lizard Head Pass 0 in 10200 ft
Mineral Creek 0 in 10040 ft
Red Mountain Pass 0 in 11150 ft
El Diente Peak 1 in 10200 ft
Idarado 2 in 9800 ft

Earthquake Activity

City Distance Mag. Time & Date
No recent earthquake activity has been reported nearby.
Minimum magnitude displayed is 2.5.

Coastal Water Temperatures

Place Temperature
No Stations Reporting

Nearby Weather Stations

Station Location Temp. Windchill Dew Point Humidity Wind Precip. Elev Updated Type
Dunton, Dolores, CO 47.2 °F 47 °F 46 °F 95% ENE  at  2.0 mph 0.00 in / hr 8862 ft 7:45 AM MDT Normal
Elk Meadows, Ridgway, CO 53.4 °F - 51 °F 90% North  at  0.0 mph 0.00 in / hr 8698 ft 8:00 AM MDT Rapid Fire
RidgwayLogHill, Ridgway, CO 53.7 °F - 52 °F 92% NW  at  0.0 mph 0.00 in / hr 7850 ft 7:45 AM MDT Normal
Log Hill Mesa, Ridgway, CO 59.3 °F - 52 °F 76% North  at  0.0 mph 0.00 in / hr 7657 ft 7:46 AM MDT Normal
ESE of Norwood, CO, Norwood, CO 59.3 °F - 48 °F 65% North  at  0.0 mph 0.00 in / hr 7674 ft 7:55 AM MDT Normal
HADS LA PLATA RIVER AT COLORADO-NEW M CO, Placerville, CO 61 °F - - - North  at  - 0.00 in / hr 5972 ft 7:30 AM MDT MADIS

Show More Stations Show Fewer Stations